Pagina principale
METAR-TAF:

METAR-TAF

Aeroporti :

Aeroporto militare Cameri

Novara, Italia

latitudine: 45-31N, longitudine: 008-40E, altezza: 178 m

Osservazione

Il bollettino è stato emesso 7 ore e 4 minuti fa, alle 17:55 UTC
Vento 4 kt da nord
Temperature 20°C
Umidità 73%
Pressione 1016 hPa
Visibilità 10 km o più
Poco nuvoloso ad un'altezza di 4000 ft

METAR: LIMN 271755Z 35004KT 9999 FEW040 20/15 Q1016 RMK BKN SCT080 VIS MIN 9999 BLU

Ora: 02:59 (00:59 UTC)

Previsione

Il bollettino è stato emesso 7 ore e 59 minuti fa, alle 17:00 UTC
Previsione valida dal 27 alle 18 UTC al 28 alle 03 UTC
Vento 5 kt da nord/nord-est
Visibilità 10 km o più
Poco nuvoloso ad un'altezza di 4000 ft
Nuvoloso ad un'altezza di 6000 ft
Temporaneamente
dal 27 alle 18 UTC al 27 alle 22 UTC
Visibilità: 5000 m
temporale, pioggia,

TAF: LIMN 271700Z 2718/2803 03005KT 9999 FEW040 BKN060 TEMPO 2718/2722 5000 TSRA

Osservazioni e previsioni meteorologiche di più di 4000 aeroporti (messaggi METAR e TAF).

Le stazioni disponibili sono rappresentate dai dischi gialli e rossi sulla carta.

Puntare il mouse per vedere il nome della stazione.

Clicca sopra per visualizzare le osservazioni e previsioni meteorologiche.

Per cambiare la mappa : fare clic sui pulsanti verdi con una croce nera per ingrandire, il pulsante verde con un trattino per diminuire, o sulla freccia verde per le mappe adiacenti.


METAR-TAF: